EDDN

Nuremberg Airport

Nuremberg, Germany
TAF EDDN 221100Z 2212/2312 13005KT 9999 OVC013 BECMG 2213/2215 BKN015 PROB30 TEMPO 2223/2308 OVC014
Issued Valid From Valid To
Jan-22 @ 11:00 UTC
(6 hours ago)
Jan-22 @ 12:00 UTC
(5 hours ago)
Jan-23 @ 12:00 UTC
(in 19 hours)
Expired Click to View Jan-22 @ 12:00 to Jan-22 @ 13:00
TAF EDDN 221100Z 2212/2312 13005KT 9999 OVC013
Wind Visibility Clouds
130° at 5 knots 10,000+ meters
  • Overcast at 1,300' AGL
Becoming Jan-22 @ 13:00 to Jan-23 @ 12:00
BECMG 2213/2215 BKN015
Wind Visibility Clouds
130° at 5 knots 10,000+ meters
  • Broken at 1,500' AGL
Temporary  (Probability 30%) Jan-22 @ 23:00 to Jan-23 @ 08:00
PROB30 TEMPO 2223/2308 OVC014
Clouds
  • Overcast at 1,400' AGL
TAF EDDN 221100Z 2212/2312 13005KT 9999 OVC013 BECMG 2213/2215 BKN015 PROB30 TEMPO 2223/2308 OVC014
Issued Jan-22 @ 11:00 UTC
(6 hours ago)
Valid From Jan-22 @ 12:00 UTC
(5 hours ago)
Valid To Jan-23 @ 12:00 UTC
(in 19 hours)
Jan-22 @ 12:00 - Jan-22 @ 13:00
Wind Visibility
130° at 5 knots 10,000+ meters
Clouds
  • Overcast at 1,300' AGL
Becoming Jan-22 @ 13:00 - Jan-23 @ 12:00
Wind Visibility
130° at 5 knots 10,000+ meters
Clouds
  • Broken at 1,500' AGL
Probability 30% Temporary Jan-22 @ 23:00 - Jan-23 @ 08:00
Clouds
  • Overcast at 1,400' AGL